createdAt,value
2023-01-15T00:01:25.748Z,7.50
2023-01-15T00:03:55.335Z,7.50
2023-01-15T00:06:25.022Z,7.50
2023-01-15T00:08:53.858Z,7.60
2023-01-15T00:11:22.838Z,7.60
2023-01-15T00:13:51.162Z,7.60
2023-01-15T00:16:22.700Z,7.60
2023-01-15T00:18:52.397Z,7.60
2023-01-15T00:21:21.429Z,7.60
2023-01-15T00:24:07.067Z,7.60
2023-01-15T00:26:53.532Z,7.70
2023-01-15T00:29:22.551Z,7.60
2023-01-15T00:31:58.096Z,7.70
2023-01-15T00:34:26.841Z,7.70
2023-01-15T00:36:55.118Z,7.70
2023-01-15T00:39:24.107Z,7.80
2023-01-15T00:41:52.286Z,7.80
2023-01-15T00:44:21.474Z,7.80
2023-01-15T00:46:49.882Z,7.90
2023-01-15T00:49:19.597Z,7.80
2023-01-15T00:51:48.671Z,7.80
2023-01-15T00:54:16.651Z,7.80
2023-01-15T00:56:44.694Z,7.80
2023-01-15T00:59:13.009Z,7.80
2023-01-15T01:01:41.621Z,7.90
2023-01-15T01:04:09.796Z,7.90
2023-01-15T01:06:39.076Z,7.90
2023-01-15T01:09:07.144Z,8.00
2023-01-15T01:11:36.742Z,8.00
2023-01-15T01:14:04.993Z,8.00
2023-01-15T01:16:35.963Z,8.00
2023-01-15T01:19:05.849Z,8.00
2023-01-15T01:21:34.266Z,8.10
2023-01-15T01:24:03.798Z,8.10
2023-01-15T01:26:33.054Z,8.20
2023-01-15T01:29:01.100Z,8.20
2023-01-15T01:31:29.219Z,8.20
2023-01-15T01:33:59.024Z,8.20
2023-01-15T01:36:30.163Z,8.20
2023-01-15T01:38:58.420Z,8.20
2023-01-15T01:41:28.950Z,8.30
2023-01-15T01:43:58.903Z,8.20
2023-01-15T01:46:28.907Z,8.30
2023-01-15T01:49:00.960Z,8.20
2023-01-15T01:51:33.369Z,8.20
2023-01-15T01:54:02.938Z,8.20
2023-01-15T01:56:34.226Z,8.20
2023-01-15T01:59:02.673Z,8.20
2023-01-15T02:01:31.099Z,8.30
2023-01-15T02:03:59.319Z,8.30
2023-01-15T02:06:28.899Z,8.30
2023-01-15T02:08:57.519Z,8.20
2023-01-15T02:11:26.257Z,8.30
2023-01-15T02:14:01.771Z,8.30
2023-01-15T02:16:37.723Z,8.30
2023-01-15T02:19:18.850Z,8.30
2023-01-15T02:21:52.535Z,8.20
2023-01-15T02:24:31.289Z,8.30
2023-01-15T02:27:10.028Z,8.30
2023-01-15T02:29:55.583Z,8.20
2023-01-15T02:32:31.115Z,8.20
2023-01-15T02:35:07.393Z,8.30
2023-01-15T02:37:39.749Z,8.20
2023-01-15T02:40:09.587Z,8.20
2023-01-15T02:42:41.103Z,8.20
2023-01-15T02:45:11.885Z,8.20
2023-01-15T02:47:43.901Z,8.20
2023-01-15T02:50:16.937Z,8.20
2023-01-15T02:52:48.666Z,8.20
2023-01-15T02:55:22.544Z,8.20
2023-01-15T02:57:55.385Z,8.20
2023-01-15T03:00:27.618Z,8.20
2023-01-15T03:03:00.712Z,8.20
2023-01-15T03:05:32.400Z,8.20
2023-01-15T03:08:03.066Z,8.20
2023-01-15T03:10:37.778Z,8.20
2023-01-15T03:13:08.520Z,8.20
2023-01-15T03:16:07.902Z,8.20
2023-01-15T03:18:42.237Z,8.20
2023-01-15T03:21:12.952Z,8.20
2023-01-15T03:23:46.252Z,8.20
2023-01-15T03:26:14.243Z,8.20
2023-01-15T03:28:45.245Z,8.30
2023-01-15T03:31:13.350Z,8.30
2023-01-15T03:33:41.723Z,8.30
2023-01-15T03:36:10.925Z,8.20
2023-01-15T03:38:40.674Z,8.20
2023-01-15T03:41:16.700Z,8.30
2023-01-15T03:43:56.821Z,8.20
2023-01-15T03:46:38.109Z,8.20
2023-01-15T03:49:11.850Z,8.30
2023-01-15T03:51:45.673Z,8.30
2023-01-15T03:54:22.687Z,8.30
2023-01-15T03:56:55.724Z,8.30
2023-01-15T03:59:30.894Z,8.30
2023-01-15T04:01:59.587Z,8.30
2023-01-15T04:04:28.747Z,8.30
2023-01-15T04:06:57.153Z,8.30
2023-01-15T04:09:25.850Z,8.40
2023-01-15T04:11:53.999Z,8.40
2023-01-15T04:14:22.015Z,8.10
2023-01-15T04:16:51.364Z,7.80
2023-01-15T04:19:19.385Z,7.70
2023-01-15T04:21:47.349Z,7.50
2023-01-15T04:24:15.268Z,7.40
2023-01-15T04:26:43.340Z,7.30
2023-01-15T04:29:11.392Z,7.10
2023-01-15T04:31:39.383Z,6.80
2023-01-15T04:34:08.864Z,6.60
2023-01-15T04:36:36.886Z,6.30
2023-01-15T04:39:05.789Z,6.00
2023-01-15T04:41:51.224Z,5.90
2023-01-15T04:44:19.357Z,5.80
2023-01-15T04:46:48.722Z,5.60
2023-01-15T04:49:19.310Z,5.50
2023-01-15T04:51:47.675Z,5.50
2023-01-15T04:54:17.737Z,5.30
2023-01-15T04:56:47.277Z,5.30
2023-01-15T04:59:15.989Z,5.30
2023-01-15T05:01:58.073Z,5.30
2023-01-15T05:04:32.629Z,5.20
2023-01-15T05:07:02.530Z,5.10
2023-01-15T05:09:30.565Z,5.10
2023-01-15T05:11:58.669Z,5.10
2023-01-15T05:14:26.732Z,5.20
2023-01-15T05:16:54.726Z,5.10
2023-01-15T05:19:22.778Z,5.20
2023-01-15T05:21:52.513Z,5.20
2023-01-15T05:24:20.818Z,5.20
2023-01-15T05:26:48.838Z,5.10
2023-01-15T05:29:17.068Z,5.20
2023-01-15T05:31:45.955Z,5.20
2023-01-15T05:34:14.813Z,5.20
2023-01-15T05:36:43.389Z,5.30
2023-01-15T05:39:12.970Z,5.20
2023-01-15T05:41:50.559Z,5.10
2023-01-15T05:44:21.686Z,5.20
2023-01-15T05:46:51.023Z,5.10
2023-01-15T05:49:22.270Z,5.00
2023-01-15T05:51:52.062Z,5.10
2023-01-15T05:54:23.997Z,5.00
2023-01-15T05:56:52.455Z,5.10
2023-01-15T05:59:22.836Z,5.10
2023-01-15T06:01:51.984Z,5.00
2023-01-15T06:04:21.477Z,5.00
2023-01-15T06:06:50.422Z,5.00
2023-01-15T06:09:19.431Z,5.00
2023-01-15T06:11:48.954Z,4.90
2023-01-15T06:14:17.435Z,4.80
2023-01-15T06:16:45.642Z,4.80
2023-01-15T06:19:15.559Z,4.90
2023-01-15T06:21:44.514Z,4.80
2023-01-15T06:24:12.652Z,4.80
2023-01-15T06:26:40.723Z,4.80
2023-01-15T06:29:10.190Z,4.80
2023-01-15T06:31:38.255Z,4.80
2023-01-15T06:34:06.429Z,4.80
2023-01-15T06:36:37.557Z,4.70
2023-01-15T06:39:05.653Z,4.70
2023-01-15T06:41:51.210Z,4.70
2023-01-15T06:44:42.159Z,4.70
2023-01-15T06:47:21.974Z,4.70
2023-01-15T06:49:50.994Z,4.60
2023-01-15T06:52:19.127Z,4.60
2023-01-15T06:54:47.809Z,4.60
2023-01-15T06:57:15.905Z,4.60
2023-01-15T06:59:45.520Z,4.70
2023-01-15T07:02:13.525Z,4.60
2023-01-15T07:04:41.633Z,4.60
2023-01-15T07:07:10.225Z,4.60
2023-01-15T07:09:38.842Z,4.60
2023-01-15T07:12:07.337Z,4.60
2023-01-15T07:14:35.489Z,4.60
2023-01-15T07:17:05.077Z,4.60
2023-01-15T07:19:33.108Z,4.60
2023-01-15T07:22:01.172Z,4.50
2023-01-15T07:24:29.417Z,4.50
2023-01-15T07:26:57.482Z,4.50
2023-01-15T07:29:25.726Z,4.50
2023-01-15T07:31:53.772Z,4.60
2023-01-15T07:34:23.310Z,4.50
2023-01-15T07:36:51.311Z,4.60
2023-01-15T07:39:19.596Z,4.60
2023-01-15T07:42:05.027Z,4.50
2023-01-15T07:44:52.974Z,4.50
2023-01-15T07:47:39.819Z,4.50
2023-01-15T07:50:11.681Z,4.50
2023-01-15T07:52:39.933Z,4.50
2023-01-15T07:55:10.265Z,4.50
2023-01-15T07:57:39.177Z,4.50
2023-01-15T08:00:09.184Z,4.50
2023-01-15T08:02:37.236Z,4.50
2023-01-15T08:05:05.649Z,4.50
2023-01-15T08:07:39.888Z,4.50
2023-01-15T08:10:09.264Z,4.50
2023-01-15T08:12:57.218Z,4.50
2023-01-15T08:15:25.984Z,4.50
2023-01-15T08:17:54.426Z,4.60
2023-01-15T08:20:24.434Z,4.60
2023-01-15T08:22:54.567Z,4.60
2023-01-15T08:25:24.047Z,4.60
2023-01-15T08:27:53.243Z,4.60
2023-01-15T08:30:23.819Z,4.60
2023-01-15T08:32:51.885Z,4.60
2023-01-15T08:35:20.162Z,4.60
2023-01-15T08:37:48.275Z,4.60
2023-01-15T08:40:18.145Z,4.60
2023-01-15T08:42:46.164Z,4.60
2023-01-15T08:45:14.844Z,4.60
2023-01-15T08:47:42.812Z,4.60
2023-01-15T08:50:12.011Z,4.60
2023-01-15T08:52:40.186Z,4.60
2023-01-15T08:55:09.437Z,4.70
2023-01-15T08:57:39.120Z,4.70
2023-01-15T09:00:09.437Z,4.80
2023-01-15T09:02:37.526Z,4.80
2023-01-15T09:05:06.194Z,4.80
2023-01-15T09:07:35.501Z,4.80
2023-01-15T09:10:04.433Z,4.80
2023-01-15T09:12:32.871Z,4.90
2023-01-15T09:15:03.381Z,4.90
2023-01-15T09:17:32.761Z,4.80
2023-01-15T09:20:00.925Z,5.00
2023-01-15T09:22:31.086Z,5.00
2023-01-15T09:24:59.460Z,5.00
2023-01-15T09:27:27.761Z,5.20
2023-01-15T09:29:56.284Z,5.10
2023-01-15T09:32:25.751Z,5.10
2023-01-15T09:34:53.720Z,5.10
2023-01-15T09:37:21.875Z,5.20
2023-01-15T09:39:49.872Z,5.20
2023-01-15T09:42:31.862Z,5.20
2023-01-15T09:45:14.604Z,5.30
2023-01-15T09:47:54.663Z,5.30
2023-01-15T09:50:31.563Z,5.30
2023-01-15T09:53:29.338Z,5.40
2023-01-15T09:55:59.024Z,5.40
2023-01-15T09:58:34.494Z,5.40
2023-01-15T10:01:03.177Z,5.40
2023-01-15T10:03:37.463Z,5.50
2023-01-15T10:06:13.325Z,5.50
2023-01-15T10:08:45.835Z,5.50
2023-01-15T10:11:50.446Z,5.50
2023-01-15T10:14:39.034Z,5.50
2023-01-15T10:17:29.480Z,5.50
2023-01-15T10:19:59.482Z,5.60
2023-01-15T10:22:40.086Z,5.60
2023-01-15T10:25:15.535Z,5.60
2023-01-15T10:27:47.860Z,5.60
2023-01-15T10:30:19.360Z,5.70
2023-01-15T10:33:02.456Z,5.70
2023-01-15T10:35:50.848Z,5.80
2023-01-15T10:38:26.235Z,5.80
2023-01-15T10:41:22.907Z,5.80
2023-01-15T10:43:57.292Z,5.80
2023-01-15T10:46:30.234Z,5.80
2023-01-15T10:49:02.952Z,5.90
2023-01-15T10:51:38.949Z,5.90
2023-01-15T10:54:15.762Z,5.90
2023-01-15T10:56:48.713Z,6.00
2023-01-15T10:59:22.154Z,6.10
2023-01-15T11:01:54.132Z,6.10
2023-01-15T11:04:23.407Z,6.20
2023-01-15T11:06:52.796Z,6.20
2023-01-15T11:09:23.772Z,6.30
2023-01-15T11:12:12.696Z,6.20
2023-01-15T11:14:59.780Z,6.10
2023-01-15T11:17:50.062Z,6.10
2023-01-15T11:20:27.868Z,6.00
2023-01-15T11:22:58.658Z,6.00
2023-01-15T11:25:29.394Z,6.00
2023-01-15T11:27:58.770Z,6.00
2023-01-15T11:30:29.606Z,6.00
2023-01-15T11:32:58.635Z,6.00
2023-01-15T11:35:27.485Z,6.00
2023-01-15T11:38:08.456Z,6.00
2023-01-15T11:40:36.318Z,6.00
2023-01-15T11:43:21.640Z,6.00
2023-01-15T11:46:08.626Z,6.00
2023-01-15T11:49:02.857Z,6.00
2023-01-15T11:51:35.663Z,6.00
2023-01-15T11:54:08.943Z,6.00
2023-01-15T11:56:37.374Z,6.10
2023-01-15T11:59:12.310Z,6.00
2023-01-15T12:01:50.249Z,6.00
2023-01-15T12:04:31.976Z,6.00
2023-01-15T12:07:00.840Z,6.00
2023-01-15T12:09:40.060Z,6.00
2023-01-15T12:12:18.410Z,6.00
2023-01-15T12:14:58.119Z,6.00
2023-01-15T12:17:42.928Z,6.00
2023-01-15T12:20:22.785Z,6.10
2023-01-15T12:23:04.223Z,6.10
2023-01-15T12:25:46.068Z,6.10
2023-01-15T12:28:18.630Z,6.20
2023-01-15T12:30:56.511Z,6.20
2023-01-15T12:33:42.704Z,6.10
2023-01-15T12:36:17.876Z,6.20
2023-01-15T12:38:50.965Z,6.20
2023-01-15T12:41:24.971Z,6.20
2023-01-15T12:44:15.632Z,6.20
2023-01-15T12:46:46.428Z,6.20
2023-01-15T12:49:32.760Z,6.20
2023-01-15T12:52:08.450Z,6.10
2023-01-15T12:54:42.693Z,6.20
2023-01-15T12:57:16.949Z,6.10
2023-01-15T12:59:52.059Z,6.10
2023-01-15T13:02:27.705Z,6.00
2023-01-15T13:05:00.209Z,6.10
2023-01-15T13:07:35.685Z,6.20
2023-01-15T13:10:09.210Z,6.10
2023-01-15T13:12:38.575Z,6.10
2023-01-15T13:15:20.904Z,6.10
2023-01-15T13:18:03.162Z,6.00
2023-01-15T13:20:40.153Z,6.00
2023-01-15T13:23:17.299Z,5.90
2023-01-15T13:26:01.322Z,5.80
2023-01-15T13:28:52.920Z,5.70
2023-01-15T13:31:44.106Z,5.60
2023-01-15T13:34:18.868Z,5.50
2023-01-15T13:36:49.585Z,5.40
2023-01-15T13:39:23.108Z,5.40
2023-01-15T13:42:12.334Z,5.40
2023-01-15T13:44:49.086Z,5.30
2023-01-15T13:47:23.308Z,5.40
2023-01-15T13:49:54.346Z,5.40
2023-01-15T13:52:26.079Z,5.50
2023-01-15T13:54:55.846Z,5.50
2023-01-15T13:57:26.865Z,5.60
2023-01-15T13:59:56.952Z,5.70
2023-01-15T14:02:31.915Z,5.80
2023-01-15T14:05:00.435Z,5.80
2023-01-15T14:07:38.338Z,5.80
2023-01-15T14:10:11.482Z,5.70
2023-01-15T14:12:50.729Z,5.70
2023-01-15T14:15:31.945Z,5.70
2023-01-15T14:18:21.455Z,5.70
2023-01-15T14:21:04.549Z,5.60
2023-01-15T14:23:58.525Z,5.50
2023-01-15T14:26:36.819Z,5.50
2023-01-15T14:29:31.156Z,5.50
2023-01-15T14:32:08.596Z,5.50
2023-01-15T14:34:38.004Z,5.50
2023-01-15T14:37:08.331Z,5.50
2023-01-15T14:39:43.020Z,5.50
2023-01-15T14:42:35.456Z,5.50
2023-01-15T14:45:09.123Z,5.50
2023-01-15T14:48:04.222Z,5.50
2023-01-15T14:50:42.591Z,5.40
2023-01-15T14:53:38.546Z,5.30
2023-01-15T14:56:15.322Z,5.40
2023-01-15T14:58:50.664Z,5.20
2023-01-15T15:01:28.967Z,5.20
2023-01-15T15:04:03.210Z,5.20
2023-01-15T15:06:31.551Z,5.20
2023-01-15T15:09:04.961Z,5.10
2023-01-15T15:11:57.681Z,5.00
2023-01-15T15:14:30.056Z,4.90
2023-01-15T15:17:05.946Z,4.90
2023-01-15T15:19:40.943Z,4.80
2023-01-15T15:22:12.490Z,4.80
2023-01-15T15:24:48.844Z,4.70
2023-01-15T15:27:18.091Z,4.70
2023-01-15T15:29:46.495Z,4.60
2023-01-15T15:32:17.971Z,4.60
2023-01-15T15:34:51.174Z,4.50
2023-01-15T15:37:20.933Z,4.50
2023-01-15T15:39:53.842Z,4.50
2023-01-15T15:42:44.405Z,4.50
2023-01-15T15:45:36.466Z,4.40
2023-01-15T15:48:36.313Z,4.40
2023-01-15T15:51:23.797Z,4.20
2023-01-15T15:53:52.305Z,4.20
2023-01-15T15:56:20.578Z,4.20
2023-01-15T15:58:48.535Z,4.20
2023-01-15T16:01:16.680Z,4.20
2023-01-15T16:03:48.559Z,4.10
2023-01-15T16:06:22.229Z,4.10
2023-01-15T16:08:55.565Z,4.00
2023-01-15T16:11:26.644Z,4.00
2023-01-15T16:13:57.254Z,4.00
2023-01-15T16:16:28.309Z,3.90
2023-01-15T16:18:58.938Z,4.00
2023-01-15T16:21:32.896Z,4.00
2023-01-15T16:24:03.452Z,3.90
2023-01-15T16:26:35.407Z,4.00
2023-01-15T16:29:05.903Z,4.00
2023-01-15T16:31:35.188Z,4.00
2023-01-15T16:34:04.323Z,4.00
2023-01-15T16:36:42.975Z,4.00
2023-01-15T16:39:22.156Z,4.00
2023-01-15T16:41:51.563Z,4.00
2023-01-15T16:44:28.492Z,4.00
2023-01-15T16:47:00.855Z,4.00
2023-01-15T16:49:31.163Z,4.10
2023-01-15T16:52:02.215Z,4.10
2023-01-15T16:54:47.571Z,4.10
2023-01-15T16:57:34.746Z,4.10
2023-01-15T17:00:07.213Z,4.10
2023-01-15T17:02:44.227Z,4.20
2023-01-15T17:05:23.852Z,4.20
2023-01-15T17:07:55.778Z,4.20
2023-01-15T17:10:27.143Z,4.30
2023-01-15T17:12:57.156Z,4.30
2023-01-15T17:15:42.556Z,4.40
2023-01-15T17:18:34.899Z,4.40
2023-01-15T17:21:03.290Z,4.40
2023-01-15T17:23:36.945Z,4.30
2023-01-15T17:26:06.354Z,4.50
2023-01-15T17:28:35.342Z,4.50
2023-01-15T17:31:04.308Z,4.60
2023-01-15T17:33:32.674Z,4.50
2023-01-15T17:36:01.553Z,4.50
2023-01-15T17:38:29.613Z,4.40
2023-01-15T17:41:03.617Z,4.50
2023-01-15T17:43:32.014Z,4.50
2023-01-15T17:46:01.134Z,4.50
2023-01-15T17:48:29.551Z,4.40
2023-01-15T17:51:00.204Z,4.40
2023-01-15T17:53:28.389Z,4.50
2023-01-15T17:56:14.196Z,4.60
2023-01-15T17:59:00.967Z,4.60
2023-01-15T18:01:49.657Z,4.60
2023-01-15T18:04:39.038Z,4.60
2023-01-15T18:07:07.413Z,4.60
2023-01-15T18:09:36.944Z,4.60
2023-01-15T18:12:06.467Z,4.60
2023-01-15T18:14:37.107Z,4.60
2023-01-15T18:17:05.237Z,4.60
2023-01-15T18:19:33.597Z,4.60
2023-01-15T18:22:01.632Z,4.50
2023-01-15T18:24:30.013Z,4.50
2023-01-15T18:26:58.155Z,4.50
2023-01-15T18:29:26.141Z,4.50
2023-01-15T18:31:55.935Z,4.60
2023-01-15T18:34:23.898Z,4.60
2023-01-15T18:36:52.110Z,4.60
2023-01-15T18:39:20.057Z,4.60
2023-01-15T18:42:11.350Z,4.60
2023-01-15T18:44:57.666Z,4.60
2023-01-15T18:47:28.224Z,4.60
2023-01-15T18:49:56.990Z,4.60
2023-01-15T18:52:53.939Z,4.60
2023-01-15T18:55:23.484Z,4.60
2023-01-15T18:57:55.749Z,4.50
2023-01-15T19:00:26.111Z,4.50
2023-01-15T19:02:55.818Z,4.50
2023-01-15T19:05:26.152Z,4.50
2023-01-15T19:07:55.302Z,4.50
2023-01-15T19:10:23.717Z,4.50
2023-01-15T19:12:51.695Z,4.50
2023-01-15T19:15:38.935Z,4.60
2023-01-15T19:18:29.398Z,4.60
2023-01-15T19:20:57.353Z,4.70
2023-01-15T19:23:25.340Z,4.70
2023-01-15T19:25:53.212Z,4.70
2023-01-15T19:28:22.211Z,4.70
2023-01-15T19:31:12.578Z,4.70
2023-01-15T19:33:41.928Z,4.70
2023-01-15T19:36:10.554Z,4.80
2023-01-15T19:38:39.700Z,4.70
2023-01-15T19:41:29.194Z,4.80
2023-01-15T19:44:14.827Z,4.90
2023-01-15T19:47:00.074Z,4.80
2023-01-15T19:49:54.162Z,4.80
2023-01-15T19:52:38.010Z,4.80
2023-01-15T19:55:10.805Z,4.70
2023-01-15T19:57:39.063Z,4.80
2023-01-15T20:00:08.807Z,4.90
2023-01-15T20:02:37.636Z,4.80
2023-01-15T20:05:09.390Z,4.80
2023-01-15T20:07:37.825Z,4.80
2023-01-15T20:10:07.834Z,4.80
2023-01-15T20:12:53.295Z,4.80
2023-01-15T20:15:21.554Z,4.80
2023-01-15T20:17:49.606Z,4.80
2023-01-15T20:20:19.117Z,4.70
2023-01-15T20:22:47.383Z,4.60
2023-01-15T20:25:15.580Z,4.60
2023-01-15T20:27:44.309Z,4.60
2023-01-15T20:30:14.802Z,4.60
2023-01-15T20:32:44.720Z,4.50
2023-01-15T20:35:15.053Z,4.50
2023-01-15T20:37:44.502Z,4.50
2023-01-15T20:40:13.564Z,4.50
2023-01-15T20:43:10.485Z,4.50
2023-01-15T20:45:38.947Z,4.50
2023-01-15T20:48:25.059Z,4.50
2023-01-15T20:51:01.998Z,4.50
2023-01-15T20:53:34.575Z,4.50
2023-01-15T20:56:03.451Z,4.60
2023-01-15T20:58:31.569Z,4.60
2023-01-15T21:01:04.233Z,4.60
2023-01-15T21:03:32.302Z,4.60
2023-01-15T21:06:00.330Z,4.50
2023-01-15T21:08:28.441Z,4.50
2023-01-15T21:10:57.823Z,4.50
2023-01-15T21:13:25.938Z,4.50
2023-01-15T21:15:58.134Z,4.50
2023-01-15T21:18:26.463Z,4.60
2023-01-15T21:20:54.563Z,4.60
2023-01-15T21:23:23.081Z,4.60
2023-01-15T21:25:51.370Z,4.60
2023-01-15T21:28:20.706Z,4.60
2023-01-15T21:30:48.597Z,4.60
2023-01-15T21:33:16.451Z,4.60
2023-01-15T21:35:44.400Z,4.50
2023-01-15T21:38:12.305Z,4.50
2023-01-15T21:40:40.894Z,4.50
2023-01-15T21:43:27.857Z,4.50
2023-01-15T21:46:04.404Z,4.50
2023-01-15T21:48:32.664Z,4.40
2023-01-15T21:51:04.188Z,4.50
2023-01-15T21:53:32.807Z,4.50
2023-01-15T21:56:00.830Z,4.40
2023-01-15T21:58:28.760Z,4.40
2023-01-15T22:00:57.245Z,4.50
2023-01-15T22:03:26.568Z,4.40
2023-01-15T22:05:54.466Z,4.30
2023-01-15T22:08:22.310Z,4.20
2023-01-15T22:10:50.371Z,4.10
2023-01-15T22:13:18.362Z,4.00
2023-01-15T22:15:53.672Z,3.90
2023-01-15T22:18:24.917Z,3.90
2023-01-15T22:20:59.403Z,3.80
2023-01-15T22:23:28.860Z,3.80
2023-01-15T22:25:56.855Z,3.80
2023-01-15T22:28:25.014Z,3.80
2023-01-15T22:30:53.008Z,3.80
2023-01-15T22:33:21.116Z,3.70
2023-01-15T22:35:58.927Z,3.70
2023-01-15T22:38:27.315Z,3.60
2023-01-15T22:40:55.353Z,3.50
2023-01-15T22:43:23.322Z,3.50
2023-01-15T22:45:51.259Z,3.40
2023-01-15T22:48:19.155Z,3.30
2023-01-15T22:50:47.157Z,3.20
2023-01-15T22:53:16.464Z,3.10
2023-01-15T22:55:44.484Z,3.10
2023-01-15T22:58:12.466Z,3.20
2023-01-15T23:00:40.373Z,3.20
2023-01-15T23:03:08.801Z,3.40
2023-01-15T23:05:38.861Z,3.50
2023-01-15T23:08:07.563Z,3.70
2023-01-15T23:10:37.323Z,3.70
2023-01-15T23:13:05.397Z,3.80
2023-01-15T23:15:33.395Z,3.80
2023-01-15T23:18:01.251Z,3.80
2023-01-15T23:20:29.209Z,3.80
2023-01-15T23:22:57.277Z,4.00
2023-01-15T23:25:25.454Z,4.00
2023-01-15T23:27:54.752Z,4.00
2023-01-15T23:30:24.302Z,3.90
2023-01-15T23:32:57.245Z,3.80
2023-01-15T23:35:26.357Z,3.70
2023-01-15T23:37:57.464Z,3.60
2023-01-15T23:40:29.024Z,3.60
2023-01-15T23:43:16.408Z,3.50
2023-01-15T23:46:15.823Z,3.50
2023-01-15T23:48:44.573Z,3.40
2023-01-15T23:51:14.770Z,3.40
2023-01-15T23:53:48.992Z,3.40
2023-01-15T23:56:19.629Z,3.50
2023-01-15T23:58:49.482Z,3.60
